Maple Creek — H8TQ — position and weather

sailwx.info

Track history (hours):
 
Tides and Currents Weather Stations Pressure Air Temp Water Temp Dewpoint Dewpoint Depression Visibility Wind Speed Wind Dir Waves Ship Positions

Maple Creek

Last reported at 2017-Dec-15 08:21 UTC. Time now 2017-Dec-16 01:45 UTC.
Position N 40°58' E 028°55'.

Length 92 m; draft 6.6 m.

Type: Cargo ship. MMSI: 371827000.

Date/timePositionNaut miles runAvg speedWind from/ knotsBaromVisibWave heightAir tempDewpointWater temp
2017-Dec-15 08:21N 40°58' E 028°55'2 4.4
2017-Dec-15 07:59N 40°57' E 028°56'510.3
2017-Dec-15 07:29N 40°53' E 029°01'510.5
2017-Dec-15 07:00N 40°49' E 029°06'510.5
2017-Dec-15 06:30N 40°47' E 029°12'510.7
2017-Dec-15 06:00N 40°45' E 029°18'5 9.6
2017-Dec-15 05:30N 40°45' E 029°25'12 0.2
2017-Dec-13 01:31N 40°45' E 029°09'0 0.9
2017-Dec-13 01:30N 40°45' E 029°09'0 0.5
2017-Dec-13 01:00N 40°45' E 029°09'0 0.5
2017-Dec-13 00:30N 40°45' E 029°09'0 0.6
2017-Dec-13 00:00N 40°45' E 029°09'0 0.6
2017-Dec-12 23:26N 40°45' E 029°10'0 0.4
2017-Dec-12 22:59N 40°45' E 029°10'0 0.2
2017-Dec-12 22:29N 40°44' E 029°10'0 0.1
2017-Dec-12 22:00N 40°44' E 029°10'0 0.2
2017-Dec-12 21:30N 40°44' E 029°10'0 0.1
2017-Dec-12 20:58N 40°44' E 029°10'0 0.1
2017-Dec-12 20:30N 40°44' E 029°10'0 0.2
2017-Dec-12 19:59N 40°44' E 029°10'0 0.4
2017-Dec-12 19:30N 40°44' E 029°09'0 0.8
2017-Dec-12 19:00N 40°44' E 029°09'0 0.9
2017-Dec-12 18:30N 40°44' E 029°08'0 0.9
2017-Dec-12 18:00N 40°44' E 029°08'1 1.0
2017-Dec-12 17:30N 40°43' E 029°07'1 1.1
2017-Dec-12 17:00N 40°43' E 029°07'1 1.1
2017-Dec-12 16:30N 40°43' E 029°06'0 1.0
2017-Dec-12 15:59N 40°43' E 029°05'0 0.7
2017-Dec-12 15:30N 40°42' E 029°05'0 0.7
2017-Dec-12 14:59N 40°42' E 029°05'0 0.6
2017-Dec-12 14:30N 40°42' E 029°04'0 0.7
2017-Dec-12 14:00N 40°42' E 029°04'0 0.7
2017-Dec-12 13:30N 40°42' E 029°04'0 0.6
2017-Dec-12 12:59N 40°42' E 029°03'5 9.2
2017-Dec-12 12:30N 40°45' E 029°07'2 3.5
2017-Dec-12 12:00N 40°47' E 029°08'0 0.4
2017-Dec-12 11:29N 40°46' E 029°08'0 0.6
2017-Dec-12 10:59N 40°46' E 029°08'0 0.6
2017-Dec-12 10:29N 40°46' E 029°08'0 0.5
2017-Dec-12 10:00N 40°46' E 029°08'0 0.4
2017-Dec-12 09:29N 40°46' E 029°07'0 0.5
2017-Dec-12 08:58N 40°45' E 029°07'0 0.6
2017-Dec-12 08:30N 40°45' E 029°07'0 0.7
2017-Dec-12 08:00N 40°45' E 029°07'1 1.1
2017-Dec-12 07:30N 40°44' E 029°07'1 1.0
2017-Dec-12 06:54N 40°44' E 029°06'0 1.0
2017-Dec-12 06:30N 40°44' E 029°05'1 1.0
2017-Dec-12 05:59N 40°44' E 029°05'4 7.9
2017-Dec-12 05:30N 40°46' E 029°08'1 1.7
2017-Dec-12 05:00N 40°46' E 029°09'0 0.7
2017-Dec-12 04:30N 40°46' E 029°09'0 0.6
2017-Dec-12 04:00N 40°46' E 029°09'0 0.8
2017-Dec-12 03:30N 40°46' E 029°09'0 0.9
2017-Dec-12 03:00N 40°45' E 029°08'0 0.8
2017-Dec-12 02:25N 40°45' E 029°08'0 1.1
2017-Dec-12 02:00N 40°45' E 029°07'1 1.3
2017-Dec-12 01:30N 40°45' E 029°07'1 1.6
2017-Dec-12 01:00N 40°44' E 029°06'1 1.6
2017-Dec-12 00:30N 40°44' E 029°05'1 1.6
2017-Dec-11 23:54N 40°44' E 029°03'1 1.3
2017-Dec-11 23:29N 40°44' E 029°03'1 1.2
2017-Dec-11 23:00N 40°43' E 029°02'1 1.4
2017-Dec-11 22:29N 40°44' E 029°01'612.2
2017-Dec-11 22:00N 40°49' E 028°59'612.0
2017-Dec-11 21:29N 40°55' E 028°57'3 5.9
2017-Dec-11 20:54N 40°59' E 028°55'0 0.1
2017-Dec-11 20:23N 40°59' E 028°55'2 5.1
2017-Dec-11 19:59N 40°57' E 028°57'510.5
2017-Dec-11 19:28N 40°52' E 028°53'209 7.2
2017-Dec-10 14:19N 37°59' E 026°22'5 9.1
2017-Dec-10 13:46N 37°55' E 026°25'3 9.0
2017-Dec-10 13:29N 37°52' E 026°27'4 9.4
2017-Dec-10 13:00N 37°48' E 026°29'1010.1
2017-Dec-10 12:01N 37°40' E 026°35'110.4
2017-Dec-10 11:55N 37°39' E 026°36'410.4
2017-Dec-10 11:30N 37°35' E 026°39'810.2
2017-Dec-10 10:45N 37°29' E 026°44'2 9.9
2017-Dec-10 10:30N 37°27' E 026°46'510.3
2017-Dec-10 10:00N 37°22' E 026°49'610.6
2017-Dec-10 09:24N 37°17' E 026°53'46311.1
2017-Dec-08 15:38N 32°56' E 034°41'311.4
2017-Dec-08 15:24N 32°55' E 034°44'711.8
2017-Dec-08 14:51N 32°54' E 034°52'  
Track history (hours):
 
Tides and Currents Weather Stations Pressure Air Temp Water Temp Dewpoint Dewpoint Depression Visibility Wind Speed Wind Dir Waves Ship Positions

Maple Creek

Last reported at 2017-Dec-15 08:21 UTC. Time now 2017-Dec-16 01:45 UTC.
Position N 40°58' E 028°55'.

Length 92 m; draft 6.6 m.

Type: Cargo ship. MMSI: 371827000.

Date/timePositionNaut miles runAvg speedWind from/ knotsBaromVisibWave heightAir tempDewpointWater temp
2017-Dec-15 08:21N 40°58' E 028°55'2 4.4
2017-Dec-15 07:59N 40°57' E 028°56'510.3
2017-Dec-15 07:29N 40°53' E 029°01'510.5
2017-Dec-15 07:00N 40°49' E 029°06'510.5
2017-Dec-15 06:30N 40°47' E 029°12'510.7
2017-Dec-15 06:00N 40°45' E 029°18'5 9.6
2017-Dec-15 05:30N 40°45' E 029°25'12 0.2
2017-Dec-13 01:31N 40°45' E 029°09'0 0.9
2017-Dec-13 01:30N 40°45' E 029°09'0 0.5
2017-Dec-13 01:00N 40°45' E 029°09'0 0.5
2017-Dec-13 00:30N 40°45' E 029°09'0 0.6
2017-Dec-13 00:00N 40°45' E 029°09'0 0.6
2017-Dec-12 23:26N 40°45' E 029°10'0 0.4
2017-Dec-12 22:59N 40°45' E 029°10'0 0.2
2017-Dec-12 22:29N 40°44' E 029°10'0 0.1
2017-Dec-12 22:00N 40°44' E 029°10'0 0.2
2017-Dec-12 21:30N 40°44' E 029°10'0 0.1
2017-Dec-12 20:58N 40°44' E 029°10'0 0.1
2017-Dec-12 20:30N 40°44' E 029°10'0 0.2
2017-Dec-12 19:59N 40°44' E 029°10'0 0.4
2017-Dec-12 19:30N 40°44' E 029°09'0 0.8
2017-Dec-12 19:00N 40°44' E 029°09'0 0.9
2017-Dec-12 18:30N 40°44' E 029°08'0 0.9
2017-Dec-12 18:00N 40°44' E 029°08'1 1.0
2017-Dec-12 17:30N 40°43' E 029°07'1 1.1
2017-Dec-12 17:00N 40°43' E 029°07'1 1.1
2017-Dec-12 16:30N 40°43' E 029°06'0 1.0
2017-Dec-12 15:59N 40°43' E 029°05'0 0.7
2017-Dec-12 15:30N 40°42' E 029°05'0 0.7
2017-Dec-12 14:59N 40°42' E 029°05'0 0.6
2017-Dec-12 14:30N 40°42' E 029°04'0 0.7
2017-Dec-12 14:00N 40°42' E 029°04'0 0.7
2017-Dec-12 13:30N 40°42' E 029°04'0 0.6
2017-Dec-12 12:59N 40°42' E 029°03'5 9.2
2017-Dec-12 12:30N 40°45' E 029°07'2 3.5
2017-Dec-12 12:00N 40°47' E 029°08'0 0.4
2017-Dec-12 11:29N 40°46' E 029°08'0 0.6
2017-Dec-12 10:59N 40°46' E 029°08'0 0.6
2017-Dec-12 10:29N 40°46' E 029°08'0 0.5
2017-Dec-12 10:00N 40°46' E 029°08'0 0.4
2017-Dec-12 09:29N 40°46' E 029°07'0 0.5
2017-Dec-12 08:58N 40°45' E 029°07'0 0.6
2017-Dec-12 08:30N 40°45' E 029°07'0 0.7
2017-Dec-12 08:00N 40°45' E 029°07'1 1.1
2017-Dec-12 07:30N 40°44' E 029°07'1 1.0
2017-Dec-12 06:54N 40°44' E 029°06'0 1.0
2017-Dec-12 06:30N 40°44' E 029°05'1 1.0
2017-Dec-12 05:59N 40°44' E 029°05'4 7.9
2017-Dec-12 05:30N 40°46' E 029°08'1 1.7
2017-Dec-12 05:00N 40°46' E 029°09'0 0.7
2017-Dec-12 04:30N 40°46' E 029°09'0 0.6
2017-Dec-12 04:00N 40°46' E 029°09'0 0.8
2017-Dec-12 03:30N 40°46' E 029°09'0 0.9
2017-Dec-12 03:00N 40°45' E 029°08'0 0.8
2017-Dec-12 02:25N 40°45' E 029°08'0 1.1
2017-Dec-12 02:00N 40°45' E 029°07'1 1.3
2017-Dec-12 01:30N 40°45' E 029°07'1 1.6
2017-Dec-12 01:00N 40°44' E 029°06'1 1.6
2017-Dec-12 00:30N 40°44' E 029°05'1 1.6
2017-Dec-11 23:54N 40°44' E 029°03'1 1.3
2017-Dec-11 23:29N 40°44' E 029°03'1 1.2
2017-Dec-11 23:00N 40°43' E 029°02'1 1.4
2017-Dec-11 22:29N 40°44' E 029°01'612.2
2017-Dec-11 22:00N 40°49' E 028°59'612.0
2017-Dec-11 21:29N 40°55' E 028°57'3 5.9
2017-Dec-11 20:54N 40°59' E 028°55'0 0.1
2017-Dec-11 20:23N 40°59' E 028°55'2 5.1
2017-Dec-11 19:59N 40°57' E 028°57'510.5
2017-Dec-11 19:28N 40°52' E 028°53'209 7.2
2017-Dec-10 14:19N 37°59' E 026°22'5 9.1
2017-Dec-10 13:46N 37°55' E 026°25'3 9.0
2017-Dec-10 13:29N 37°52' E 026°27'4 9.4
2017-Dec-10 13:00N 37°48' E 026°29'1010.1
2017-Dec-10 12:01N 37°40' E 026°35'110.4
2017-Dec-10 11:55N 37°39' E 026°36'410.4
2017-Dec-10 11:30N 37°35' E 026°39'810.2
2017-Dec-10 10:45N 37°29' E 026°44'2 9.9
2017-Dec-10 10:30N 37°27' E 026°46'510.3
2017-Dec-10 10:00N 37°22' E 026°49'610.6
2017-Dec-10 09:24N 37°17' E 026°53'46311.1
2017-Dec-08 15:38N 32°56' E 034°41'311.4
2017-Dec-08 15:24N 32°55' E 034°44'711.8
2017-Dec-08 14:51N 32°54' E 034°52'  

Dump ship's entire track history